Time;durP1;ratioP1;P1;durP2;ratioP2;P2;SDS_P1;SDS_P2;PMS_P1;PMS_P2;Temp;Humidity;BMP_temperature;BMP_pressure;BME280_temperature;BME280_humidity;BME280_pressure;Samples;Min_cycle;Max_cycle;Signal;HPM_P1;HPM_P2
2020/12/23 00:00:53;;;;;;;29.27;7.07;;;;;;;4.89;100.00;100810.69;4997766;28;20038;-66
2020/12/23 00:03:18;;;;;;;24.77;6.53;;;;;;;4.68;100.00;100805.81;4994559;28;20574;-65
2020/12/23 00:05:44;;;;;;;40.70;6.93;;;;;;;4.63;100.00;100805.72;5001752;28;20041;-64
2020/12/23 00:08:09;;;;;;;54.40;7.47;;;;;;;4.75;100.00;100801.69;5000930;28;20034;-64
2020/12/23 00:10:35;;;;;;;74.90;7.70;;;;;;;4.78;100.00;100791.41;5003486;28;20033;-63
2020/12/23 00:13:01;;;;;;;46.07;7.90;;;;;;;4.80;100.00;100787.13;5010738;28;20425;-63
2020/12/23 00:15:26;;;;;;;56.50;7.97;;;;;;;4.77;100.00;100794.84;4997285;28;20037;-64
2020/12/23 00:17:51;;;;;;;46.43;7.23;;;;;;;4.62;100.00;100798.78;4999053;28;20058;-67
2020/12/23 00:20:17;;;;;;;35.97;6.80;;;;;;;4.46;100.00;100794.00;5000354;28;20034;-65
2020/12/23 00:22:42;;;;;;;36.07;6.93;;;;;;;4.27;100.00;100802.09;4998624;28;20068;-66
2020/12/23 00:25:08;;;;;;;102.23;10.43;;;;;;;4.21;100.00;100807.09;4995472;28;20481;-66
2020/12/23 00:27:33;;;;;;;83.87;8.63;;;;;;;4.17;100.00;100800.06;5009000;28;20022;-66
2020/12/23 00:29:58;;;;;;;70.33;8.10;;;;;;;4.17;100.00;100794.91;5004875;28;20034;-66
2020/12/23 00:32:29;;;;;;;30.50;6.80;;;;;;;4.13;100.00;100798.25;5002429;28;20100;-66
2020/12/23 00:34:55;;;;;;;35.93;7.70;;;;;;;4.05;100.00;100801.47;5005177;28;20116;-66
2020/12/23 00:37:20;;;;;;;53.90;7.90;;;;;;;4.08;100.00;100795.50;5001508;28;20399;-65
2020/12/23 00:39:46;;;;;;;62.73;8.03;;;;;;;4.06;100.00;100808.41;5002081;28;20030;-66
2020/12/23 00:42:11;;;;;;;45.43;7.13;;;;;;;4.01;100.00;100798.75;4995990;28;20018;-66
2020/12/23 00:44:37;;;;;;;27.40;5.43;;;;;;;3.96;100.00;100803.78;4995956;28;20042;-66
2020/12/23 00:47:02;;;;;;;28.60;5.57;;;;;;;3.96;100.00;100796.00;5003841;28;20037;-67
2020/12/23 00:49:28;;;;;;;34.23;5.33;;;;;;;3.91;100.00;100792.44;4999318;28;20014;-66
2020/12/23 00:51:53;;;;;;;23.87;5.30;;;;;;;3.76;100.00;100792.84;4999227;28;20065;-66
2020/12/23 00:54:19;;;;;;;15.73;5.17;;;;;;;3.70;100.00;100781.44;4999169;28;20153;-66
2020/12/23 00:56:44;;;;;;;34.43;5.70;;;;;;;3.70;100.00;100782.31;5000784;28;20042;-66
2020/12/23 00:59:09;;;;;;;19.50;4.87;;;;;;;3.68;100.00;100775.34;4999866;28;20022;-66
2020/12/23 01:01:35;;;;;;;13.97;5.03;;;;;;;3.63;100.00;100779.47;4998363;28;20034;-66
2020/12/23 01:04:00;;;;;;;19.00;4.70;;;;;;;3.59;100.00;100790.56;5010149;28;20030;-65
2020/12/23 01:06:26;;;;;;;28.83;6.10;;;;;;;3.57;100.00;100789.66;4996901;28;20060;-66
2020/12/23 01:08:51;;;;;;;30.30;5.93;;;;;;;3.63;100.00;100779.47;4999584;28;20573;-66
2020/12/23 01:11:17;;;;;;;37.63;6.60;;;;;;;3.52;100.00;100792.09;4999192;28;20040;-66
2020/12/23 01:13:42;;;;;;;48.53;6.73;;;;;;;3.51;100.00;100788.66;4994636;28;20034;-67
2020/12/23 01:16:08;;;;;;;32.00;5.77;;;;;;;3.39;100.00;100779.59;5002878;28;20089;-66
2020/12/23 01:18:33;;;;;;;28.73;5.90;;;;;;;3.35;100.00;100773.47;5000203;28;20458;-67
2020/12/23 01:20:59;;;;;;;22.47;5.27;;;;;;;3.39;100.00;100766.66;4997813;28;20433;-67
2020/12/23 01:23:24;;;;;;;16.33;5.23;;;;;;;3.42;100.00;100779.72;4995845;28;20498;-64
2020/12/23 01:25:54;;;;;;;17.13;5.33;;;;;;;3.45;100.00;100796.19;5001741;28;20037;-64
2020/12/23 01:28:20;;;;;;;23.53;5.67;;;;;;;3.52;100.00;100797.28;4997957;28;20053;-64
2020/12/23 01:30:46;;;;;;;20.37;5.90;;;;;;;3.53;100.00;100794.72;4997377;28;20373;-63
2020/12/23 01:33:12;;;;;;;27.10;6.40;;;;;;;3.58;100.00;100791.41;4993683;28;20261;-65
2020/12/23 01:35:37;;;;;;;25.23;6.20;;;;;;;3.68;100.00;100789.16;5008860;28;20040;-64
2020/12/23 01:38:04;;;;;;;35.37;7.67;;;;;;;3.73;100.00;100786.69;5007108;28;20030;-64
2020/12/23 01:40:30;;;;;;;35.90;6.80;;;;;;;3.75;100.00;100785.03;5000140;28;20034;-65
2020/12/23 01:42:55;;;;;;;35.83;6.50;;;;;;;3.69;100.00;100790.91;5000463;28;20292;-63
2020/12/23 01:45:20;;;;;;;36.23;6.47;;;;;;;3.68;100.00;100793.44;4997567;28;20490;-66
2020/12/23 01:47:46;;;;;;;24.57;6.20;;;;;;;3.71;100.00;100786.66;4993208;28;20062;-67
2020/12/23 01:50:13;;;;;;;27.53;6.50;;;;;;;3.80;100.00;100799.00;4998956;28;20030;-66
2020/12/23 01:52:38;;;;;;;36.07;8.60;;;;;;;3.93;100.00;100789.88;4999719;28;20045;-66
2020/12/23 01:55:07;;;;;;;33.40;7.23;;;;;;;4.01;100.00;100794.47;4992964;28;20292;-66
2020/12/23 01:57:33;;;;;;;30.20;7.77;;;;;;;4.06;100.00;100795.47;4994768;28;20034;-66
2020/12/23 01:59:59;;;;;;;35.50;7.93;;;;;;;4.00;100.00;100803.06;4996950;28;20324;-65
2020/12/23 02:02:35;;;;;;;25.60;6.83;;;;;;;3.91;100.00;100802.78;4994702;28;20313;-67
2020/12/23 02:05:02;;;;;;;39.43;7.77;;;;;;;3.91;100.00;100807.94;4994835;28;20117;-66
2020/12/23 02:07:29;;;;;;;30.30;7.40;;;;;;;3.90;100.00;100811.38;4998506;28;20289;-66
2020/12/23 02:09:56;;;;;;;40.30;7.77;;;;;;;3.96;100.00;100806.38;5001729;28;20806;-66
2020/12/23 02:12:22;;;;;;;30.30;7.70;;;;;;;3.97;100.00;100808.13;4995106;28;20277;-67
2020/12/23 02:14:48;;;;;;;34.87;8.83;;;;;;;4.06;100.00;100805.81;5002195;28;20285;-67
2020/12/23 02:17:14;;;;;;;35.00;8.20;;;;;;;4.14;100.00;100800.00;4996454;28;20030;-67
2020/12/23 02:19:51;;;;;;;39.50;8.90;;;;;;;4.19;100.00;100798.41;4996258;28;20340;-66
2020/12/23 02:22:38;;;;;;;42.70;9.37;;;;;;;4.21;100.00;100801.91;5001242;28;20038;-67
2020/12/23 02:25:04;;;;;;;52.73;10.17;;;;;;;4.15;100.00;100801.75;4997058;28;20787;-67
2020/12/23 02:27:30;;;;;;;81.83;12.23;;;;;;;4.07;100.00;100793.75;5002392;28;20301;-65
2020/12/23 02:29:57;;;;;;;67.87;11.00;;;;;;;3.98;100.00;100794.34;4996853;28;20894;-67
2020/12/23 02:32:24;;;;;;;60.40;11.23;;;;;;;3.92;100.00;100789.00;4997000;28;20030;-66
2020/12/23 02:34:50;;;;;;;63.50;11.00;;;;;;;3.87;100.00;100793.16;4997026;28;20292;-67
2020/12/23 02:37:17;;;;;;;55.83;10.73;;;;;;;3.83;100.00;100793.91;4997776;28;20284;-67
2020/12/23 02:39:45;;;;;;;64.63;10.73;;;;;;;3.82;100.00;100802.50;5003556;28;20284;-67
2020/12/23 02:42:10;;;;;;;68.80;10.73;;;;;;;3.79;100.00;100797.25;4999002;28;20399;-64
2020/12/23 02:44:36;;;;;;;54.67;10.30;;;;;;;3.80;100.00;100794.69;4994595;28;20371;-64
2020/12/23 02:47:03;;;;;;;58.00;10.27;;;;;;;3.80;100.00;100799.88;4992909;28;20034;-64
2020/12/23 02:49:30;;;;;;;73.87;11.30;;;;;;;3.85;100.00;100792.22;4997209;28;20061;-64
2020/12/23 02:51:56;;;;;;;56.83;9.77;;;;;;;3.87;100.00;100790.56;4992705;28;20273;-64
2020/12/23 02:54:22;;;;;;;77.07;11.00;;;;;;;3.90;100.00;100780.34;4993772;28;20651;-63
2020/12/23 02:56:48;;;;;;;75.80;11.73;;;;;;;3.90;100.00;100780.34;4998120;28;20125;-66
2020/12/23 02:59:13;;;;;;;61.97;10.43;;;;;;;3.91;100.00;100771.75;5005575;28;20396;-66
2020/12/23 03:01:40;;;;;;;52.73;9.40;;;;;;;3.91;100.00;100770.84;4996262;28;20042;-67
2020/12/23 03:04:06;;;;;;;75.30;9.93;;;;;;;3.89;100.00;100773.41;5005453;28;20065;-66
2020/12/23 03:06:32;;;;;;;74.07;11.93;;;;;;;3.90;100.00;100769.97;5009225;28;20668;-67
2020/12/23 03:08:57;;;;;;;82.27;10.97;;;;;;;3.92;100.00;100763.13;4999329;28;20034;-67
2020/12/23 03:11:23;;;;;;;44.70;9.67;;;;;;;3.93;100.00;100767.47;4996517;28;20285;-66
2020/12/23 03:13:48;;;;;;;68.77;11.20;;;;;;;3.93;100.00;100754.53;4999552;28;20030;-65
2020/12/23 03:16:14;;;;;;;41.20;9.40;;;;;;;3.93;100.00;100748.50;4996594;28;20085;-67
2020/12/23 03:18:40;;;;;;;59.43;10.53;;;;;;;3.93;100.00;100749.38;4995678;28;20033;-66
2020/12/23 03:21:06;;;;;;;43.93;10.00;;;;;;;3.99;100.00;100741.78;4993059;28;20367;-67
2020/12/23 03:23:32;;;;;;;47.80;9.57;;;;;;;4.06;100.00;100745.44;5001147;28;20053;-67
2020/12/23 03:25:57;;;;;;;42.13;9.97;;;;;;;4.09;100.00;100746.38;4995120;28;20296;-65
2020/12/23 03:28:23;;;;;;;51.53;10.27;;;;;;;4.14;100.00;100736.19;4997714;28;20033;-66
2020/12/23 03:30:48;;;;;;;36.70;10.07;;;;;;;4.18;100.00;100742.31;4973756;28;20036;-66
2020/12/23 03:33:13;;;;;;;40.10;10.30;;;;;;;4.24;100.00;100734.69;4996325;28;20099;-67
2020/12/23 03:35:39;;;;;;;51.90;11.17;;;;;;;4.27;100.00;100719.28;4992883;28;20037;-66
2020/12/23 03:38:04;;;;;;;49.83;10.63;;;;;;;4.32;100.00;100710.78;4994331;28;20537;-66
2020/12/23 03:40:30;;;;;;;31.23;9.07;;;;;;;4.43;100.00;100710.19;4995358;28;20034;-67
2020/12/23 03:42:55;;;;;;;35.83;9.97;;;;;;;4.52;100.00;100716.50;4995236;28;20038;-66
2020/12/23 03:45:20;;;;;;;50.40;10.77;;;;;;;4.51;100.00;100725.09;5004076;28;20057;-67
2020/12/23 03:47:46;;;;;;;34.07;10.10;;;;;;;4.60;100.00;100725.34;5004551;28;20092;-66
2020/12/23 03:50:11;;;;;;;37.27;9.17;;;;;;;4.65;100.00;100728.91;4999701;28;20084;-65
2020/12/23 03:52:37;;;;;;;35.63;9.43;;;;;;;4.65;100.00;100721.16;5003244;28;20030;-66
2020/12/23 03:55:02;;;;;;;28.67;9.53;;;;;;;4.67;100.00;100727.25;5009066;28;20038;-66
2020/12/23 03:57:28;;;;;;;28.73;9.47;;;;;;;4.70;100.00;100721.25;5000150;28;20040;-65
2020/12/23 03:59:53;;;;;;;29.90;8.67;;;;;;;4.71;100.00;100707.47;4998984;28;20041;-65
2020/12/23 04:02:19;;;;;;;32.90;9.27;;;;;;;4.71;100.00;100713.53;4998401;28;20406;-66
2020/12/23 04:04:44;;;;;;;25.70;8.20;;;;;;;4.75;100.00;100713.63;4994177;28;20117;-66
2020/12/23 04:07:09;;;;;;;31.37;8.87;;;;;;;4.75;100.00;100709.31;5004693;28;20104;-66
2020/12/23 04:09:35;;;;;;;26.27;8.93;;;;;;;4.75;100.00;100705.84;4996788;28;20101;-66
2020/12/23 04:12:00;;;;;;;33.47;9.10;;;;;;;4.73;100.00;100698.06;4995912;28;20393;-66
2020/12/23 04:14:25;;;;;;;32.73;8.70;;;;;;;4.75;100.00;100698.09;4995867;28;20041;-66
2020/12/23 04:16:51;;;;;;;32.07;8.77;;;;;;;4.75;100.00;100695.50;4999620;28;20097;-65
2020/12/23 04:19:16;;;;;;;25.53;8.77;;;;;;;4.80;100.00;100701.66;4994819;28;20038;-66
2020/12/23 04:21:42;;;;;;;32.73;8.73;;;;;;;4.81;100.00;100704.28;5001417;28;20108;-67
2020/12/23 04:24:07;;;;;;;35.80;9.00;;;;;;;4.83;100.00;100706.91;4999608;28;20132;-67
2020/12/23 04:26:32;;;;;;;30.37;9.27;;;;;;;4.86;100.00;100704.41;4996561;28;20034;-66
2020/12/23 04:28:58;;;;;;;32.13;8.80;;;;;;;4.88;100.00;100700.13;4996245;28;20034;-66
2020/12/23 04:31:23;;;;;;;34.57;9.07;;;;;;;4.90;100.00;100698.44;5003345;28;20456;-65
2020/12/23 04:33:49;;;;;;;35.90;8.90;;;;;;;4.92;100.00;100701.94;4995739;28;20031;-65
2020/12/23 04:36:14;;;;;;;31.73;8.93;;;;;;;4.95;100.00;100700.31;5002308;28;20026;-66
2020/12/23 04:38:40;;;;;;;33.33;8.93;;;;;;;4.97;100.00;100695.19;4996951;28;20085;-66
2020/12/23 04:41:05;;;;;;;34.07;9.37;;;;;;;4.97;100.00;100711.59;5005188;28;20029;-67
2020/12/23 04:43:31;;;;;;;34.73;9.17;;;;;;;5.02;100.00;100713.41;4998128;28;20409;-66
2020/12/23 04:45:57;;;;;;;30.47;9.07;;;;;;;5.04;100.00;100711.72;5000881;28;20514;-65
2020/12/23 04:48:26;;;;;;;37.73;9.27;;;;;;;5.08;100.00;100705.78;5002062;28;20277;-67
2020/12/23 04:50:55;;;;;;;35.13;8.33;;;;;;;5.08;100.00;100709.25;4998031;28;20281;-66
2020/12/23 04:53:21;;;;;;;28.50;8.40;;;;;;;5.06;100.00;100702.28;4996245;28;20346;-67
2020/12/23 04:55:47;;;;;;;32.60;9.20;;;;;;;5.06;100.00;100705.75;4995613;28;20285;-66
2020/12/23 04:58:12;;;;;;;27.80;8.27;;;;;;;5.06;100.00;100700.56;5007769;28;20794;-66
2020/12/23 05:00:38;;;;;;;26.13;8.70;;;;;;;5.09;100.00;100704.94;5005085;28;20120;-67
2020/12/23 05:03:03;;;;;;;34.17;8.70;;;;;;;5.11;100.00;100701.56;4997639;28;20030;-67
2020/12/23 05:05:29;;;;;;;29.37;9.17;;;;;;;5.16;100.00;100699.94;5003550;28;20500;-65
2020/12/23 05:07:55;;;;;;;30.90;8.93;;;;;;;5.21;100.00;100700.94;5003335;28;20034;-66
2020/12/23 05:10:20;;;;;;;36.60;9.33;;;;;;;5.25;100.00;100692.38;4997168;28;20048;-66
2020/12/23 05:12:46;;;;;;;37.53;9.70;;;;;;;5.29;100.00;100686.41;4998516;28;20042;-65
2020/12/23 05:15:12;;;;;;;43.63;10.60;;;;;;;5.33;100.00;100686.47;5001863;28;20033;-65
2020/12/23 05:17:43;;;;;;;47.37;10.90;;;;;;;5.41;100.00;100682.34;4994265;28;20034;-66
2020/12/23 05:20:08;;;;;;;35.87;10.23;;;;;;;5.41;100.00;100678.03;4994770;28;20289;-65
2020/12/23 05:22:34;;;;;;;45.73;12.40;;;;;;;5.40;100.00;100686.66;4993483;28;20665;-65
2020/12/23 05:25:00;;;;;;;39.10;10.43;;;;;;;5.39;100.00;100695.28;4998354;28;20029;-65
2020/12/23 05:27:26;;;;;;;38.23;10.80;;;;;;;5.40;100.00;100685.78;4995553;28;20061;-66
2020/12/23 05:29:52;;;;;;;39.50;10.17;;;;;;;5.42;100.00;100699.66;4993725;28;20311;-65
2020/12/23 05:32:18;;;;;;;38.17;10.73;;;;;;;5.45;100.00;100699.72;5000640;28;20037;-66
2020/12/23 05:34:43;;;;;;;39.10;11.53;;;;;;;5.48;100.00;100705.00;4995571;28;20281;-65
2020/12/23 05:37:09;;;;;;;39.63;11.27;;;;;;;5.49;100.00;100696.38;5001805;28;20416;-66
2020/12/23 05:39:35;;;;;;;39.10;10.37;;;;;;;5.50;100.00;100691.22;4998955;28;20058;-66
2020/12/23 05:42:01;;;;;;;37.13;10.43;;;;;;;5.50;100.00;100687.75;4999227;28;20042;-66
2020/12/23 05:44:28;;;;;;;34.03;10.50;;;;;;;5.50;100.00;100683.44;4996430;28;20037;-65
2020/12/23 05:46:54;;;;;;;38.30;11.03;;;;;;;5.53;100.00;100690.38;5003087;28;20364;-65
2020/12/23 05:49:23;;;;;;;44.57;11.40;;;;;;;5.55;100.00;100693.88;4999275;28;20269;-66
2020/12/23 05:51:50;;;;;;;45.10;10.50;;;;;;;5.58;100.00;100686.19;4998454;28;20320;-67
2020/12/23 05:54:19;;;;;;;46.87;11.90;;;;;;;5.61;100.00;100670.69;4993381;28;20280;-65
2020/12/23 05:56:45;;;;;;;44.23;11.00;;;;;;;5.62;100.00;100664.66;4997552;28;20716;-66
2020/12/23 05:59:10;;;;;;;37.87;10.67;;;;;;;5.61;100.00;100667.22;5004524;28;20375;-64
2020/12/23 06:01:38;;;;;;;34.93;10.30;;;;;;;5.59;100.00;100667.19;4994309;28;20064;-63
2020/12/23 06:04:07;;;;;;;34.27;9.53;;;;;;;5.57;100.00;100668.84;4994304;28;20401;-64
2020/12/23 06:06:34;;;;;;;37.07;9.60;;;;;;;5.55;100.00;100660.16;4996695;28;20305;-64
2020/12/23 06:09:06;;;;;;;35.30;9.43;;;;;;;5.51;100.00;100653.19;5001406;28;20752;-64
2020/12/23 06:11:47;;;;;;;39.67;12.52;;;;;;;5.48;100.00;100653.13;5008176;28;20276;-63
2020/12/23 06:14:25;;;;;;;36.27;11.50;;;;;;;5.46;100.00;100644.44;4999553;28;20030;-64
2020/12/23 06:17:04;;;;;;;37.53;10.43;;;;;;;5.48;100.00;100647.94;4999227;28;20293;-64
2020/12/23 06:19:29;;;;;;;34.00;10.03;;;;;;;5.54;100.00;100643.72;4996112;28;20293;-64
2020/12/23 06:21:59;;;;;;;38.73;11.43;;;;;;;5.57;100.00;100642.91;4999848;28;20337;-63
2020/12/23 06:24:27;;;;;;;39.53;10.47;;;;;;;5.62;100.00;100641.31;4996788;28;20037;-64
2020/12/23 06:26:57;;;;;;;45.17;10.63;;;;;;;5.67;100.00;100644.84;4997105;28;20314;-63
2020/12/23 06:29:35;;;;;;;43.23;11.50;;;;;;;5.67;100.00;100644.84;4993273;28;20339;-63
2020/12/23 06:32:03;;;;;;;40.57;10.60;;;;;;;5.74;100.00;100640.69;4998245;28;20284;-63
2020/12/23 06:34:32;;;;;;;36.83;12.20;;;;;;;5.77;100.00;100641.59;4995644;28;20777;-63
2020/12/23 06:36:58;;;;;;;41.00;11.30;;;;;;;5.79;100.00;100639.91;4997398;28;20273;-64
2020/12/23 06:39:31;;;;;;;41.30;12.00;;;;;;;5.81;100.00;100639.94;4997994;28;20320;-63
2020/12/23 06:41:59;;;;;;;57.30;13.37;;;;;;;5.84;100.00;100643.50;4997805;28;20281;-64
2020/12/23 06:44:45;;;;;;;50.70;12.43;;;;;;;5.87;100.00;100643.53;4991551;28;20683;-64
2020/12/23 06:47:12;;;;;;;57.73;15.17;;;;;;;5.92;100.00;100645.38;5000173;28;20277;-63
2020/12/23 06:49:37;;;;;;;59.53;14.83;;;;;;;5.95;100.00;100653.25;4996142;28;20799;-64
2020/12/23 06:52:27;;;;;;;49.17;13.60;;;;;;;5.99;100.00;100642.06;4995206;28;20265;-64
2020/12/23 06:54:56;;;;;;;47.93;12.80;;;;;;;6.00;100.00;100638.63;4994624;28;20060;-63
2020/12/23 06:57:37;;;;;;;52.40;13.33;;;;;;;6.06;100.00;100636.16;4999011;28;20316;-63
2020/12/23 07:00:16;;;;;;;46.73;11.90;;;;;;;6.07;100.00;100630.13;4997860;28;20290;-63
2020/12/23 07:02:42;;;;;;;41.50;11.83;;;;;;;6.10;100.00;100632.75;5004075;28;20279;-63
2020/12/23 07:05:09;;;;;;;48.10;11.53;;;;;;;6.13;100.00;100620.72;5007417;28;20783;-64
2020/12/23 07:07:38;;;;;;;41.23;11.87;;;;;;;6.17;100.00;100611.25;5008298;28;20284;-64
2020/12/23 07:10:10;;;;;;;38.87;11.43;;;;;;;6.19;100.00;100598.31;5005200;28;20280;-62
2020/12/23 07:12:41;;;;;;;38.50;10.23;;;;;;;6.21;100.00;100597.47;5008239;28;20334;-63
2020/12/23 07:15:10;;;;;;;32.13;11.67;;;;;;;6.19;100.00;100619.97;5009419;28;20033;-63
2020/12/23 07:17:38;;;;;;;38.50;11.23;;;;;;;6.19;100.00;100624.28;5006336;28;20288;-63
2020/12/23 07:20:05;;;;;;;39.57;12.90;;;;;;;6.19;100.00;100635.53;5001800;28;20048;-63
2020/12/23 07:22:32;;;;;;;44.07;12.20;;;;;;;6.21;100.00;100627.78;5009023;28;20355;-64
2020/12/23 07:24:58;;;;;;;31.73;10.93;;;;;;;6.24;100.00;100633.88;5009166;28;20284;-64
2020/12/23 07:27:25;;;;;;;37.83;12.10;;;;;;;6.24;100.00;100627.81;5008668;28;20272;-64
2020/12/23 07:30:07;;;;;;;54.67;12.47;;;;;;;6.25;100.00;100626.97;5009897;28;20273;-64
2020/12/23 07:32:33;;;;;;;35.95;11.02;;;;;;;6.25;100.00;100611.38;5009008;28;20272;-64
2020/12/23 07:34:59;;;;;;;33.93;11.50;;;;;;;6.29;100.00;100605.38;5008055;28;20037;-64
2020/12/23 07:37:26;;;;;;;40.27;11.97;;;;;;;6.30;100.00;100613.22;5006056;28;20026;-64
2020/12/23 07:39:52;;;;;;;39.57;11.27;;;;;;;6.29;100.00;100616.66;5008523;28;20366;-63
2020/12/23 07:42:19;;;;;;;36.73;10.73;;;;;;;6.31;100.00;100608.91;5008272;28;20280;-63
2020/12/23 07:44:54;;;;;;;41.83;10.93;;;;;;;6.33;100.00;100608.09;5008986;28;20513;-64
2020/12/23 07:47:25;;;;;;;33.53;12.03;;;;;;;6.34;100.00;100620.22;5008814;28;20343;-64
2020/12/23 07:50:17;;;;;;;42.27;12.13;;;;;;;6.33;100.00;100615.88;5008447;28;20795;-63
2020/12/23 07:52:42;;;;;;;40.13;12.10;;;;;;;6.35;100.00;100616.78;4997502;28;20354;-63
2020/12/23 07:55:15;;;;;;;42.77;11.23;;;;;;;6.38;100.00;100608.16;5007115;28;20034;-63
2020/12/23 07:57:42;;;;;;;38.63;11.63;;;;;;;6.38;100.00;100596.03;5001576;28;20022;-63
2020/12/23 08:00:10;;;;;;;46.13;11.90;;;;;;;6.41;100.00;100593.47;5009699;28;20655;-64
2020/12/23 08:02:35;;;;;;;45.23;11.37;;;;;;;6.43;100.00;100593.53;5005710;28;20308;-63
2020/12/23 08:05:03;;;;;;;38.73;11.17;;;;;;;6.45;100.00;100587.50;5008988;28;20053;-64
2020/12/23 08:07:28;;;;;;;36.20;10.70;;;;;;;6.46;100.00;100589.25;5007897;28;20021;-64
2020/12/23 08:09:54;;;;;;;34.17;10.97;;;;;;;6.46;100.00;100589.25;5003873;28;20319;-63
2020/12/23 08:12:20;;;;;;;36.57;10.47;;;;;;;6.55;100.00;100590.25;5008774;28;20424;-64
2020/12/23 08:14:47;;;;;;;38.40;10.30;;;;;;;6.52;100.00;100587.59;5007624;28;20504;-68
2020/12/23 08:17:22;;;;;;;35.03;9.13;;;;;;;6.54;100.00;100575.50;5009069;28;20421;-64
2020/12/23 08:20:06;;;;;;;39.00;9.63;;;;;;;6.56;100.00;100573.81;5004956;28;20291;-63
2020/12/23 08:22:36;;;;;;;46.03;11.47;;;;;;;6.56;100.00;100579.88;5005684;28;20922;-63
2020/12/23 08:25:16;;;;;;;40.77;12.07;;;;;;;6.59;100.00;100573.88;5007745;28;20408;-63
2020/12/23 08:27:46;;;;;;;39.43;11.37;;;;;;;6.60;100.00;100566.09;5006380;28;20760;-63
2020/12/23 08:30:18;;;;;;;39.30;13.13;;;;;;;6.59;100.00;100558.28;5006849;28;20277;-64
2020/12/23 08:32:55;;;;;;;37.67;12.07;;;;;;;6.58;100.00;100561.72;5005639;28;20034;-64
2020/12/23 08:35:26;;;;;;;39.23;12.13;;;;;;;6.60;100.00;100550.50;5009980;28;20494;-64
2020/12/23 08:37:51;;;;;;;40.77;11.67;;;;;;;6.63;100.00;100557.47;5008238;28;20034;-64
2020/12/23 08:40:17;;;;;;;33.87;10.80;;;;;;;6.64;100.00;100552.28;5008823;28;20272;-63
2020/12/23 08:42:52;;;;;;;37.57;10.43;;;;;;;6.65;100.00;100561.81;5009844;28;20068;-63
2020/12/23 08:45:26;;;;;;;37.63;10.70;;;;;;;6.66;100.00;100562.69;5012171;28;20349;-64
2020/12/23 08:47:52;;;;;;;31.23;9.80;;;;;;;6.69;100.00;100553.25;5009894;28;20026;-63
2020/12/23 08:50:20;;;;;;;31.70;9.60;;;;;;;6.71;100.00;100556.72;5010588;28;20032;-63
2020/12/23 08:52:50;;;;;;;35.60;9.60;;;;;;;6.75;100.00;100544.66;5009588;28;20493;-63
2020/12/23 08:55:26;;;;;;;36.13;10.10;;;;;;;6.74;100.00;100554.16;5008904;28;20380;-63
2020/12/23 08:58:06;;;;;;;35.93;10.50;;;;;;;6.76;100.00;100546.41;5008926;28;20033;-63
2020/12/23 09:00:34;;;;;;;33.63;10.30;;;;;;;6.89;100.00;100547.44;5011179;28;20065;-64
2020/12/23 09:03:00;;;;;;;46.23;11.20;;;;;;;6.89;100.00;100543.13;5008987;28;20504;-63
2020/12/23 09:05:30;;;;;;;35.77;9.90;;;;;;;6.95;100.00;100542.34;5010411;28;20026;-64
2020/12/23 09:08:11;;;;;;;35.00;9.93;;;;;;;6.96;100.00;100539.75;5005447;28;20025;-63
2020/12/23 09:10:50;;;;;;;38.37;9.47;;;;;;;7.02;100.00;100539.81;5007586;28;20029;-64
2020/12/23 09:13:16;;;;;;;38.73;10.43;;;;;;;7.03;100.00;100536.41;5005629;28;20040;-63
2020/12/23 09:15:41;;;;;;;40.30;10.63;;;;;;;7.03;100.00;100533.81;5004509;28;20029;-63
2020/12/23 09:18:12;;;;;;;31.43;9.63;;;;;;;7.08;100.00;100530.38;5008892;28;20569;-63
2020/12/23 09:20:39;;;;;;;32.17;9.67;;;;;;;7.15;100.00;100526.97;5012751;28;20061;-63
2020/12/23 09:23:05;;;;;;;26.37;8.30;;;;;;;7.16;100.00;100515.75;5011944;28;20076;-63
2020/12/23 09:25:33;;;;;;;35.20;10.67;;;;;;;7.15;100.00;100509.69;5011394;28;20036;-63
2020/12/23 09:28:09;;;;;;;28.87;9.00;;;;;;;7.22;100.00;100497.59;5009513;28;20030;-63
2020/12/23 09:30:47;;;;;;;21.20;7.53;;;;;;;7.28;100.00;100495.97;5010618;28;20501;-64
2020/12/23 09:33:15;;;;;;;26.80;9.03;;;;;;;7.35;100.00;100502.09;5010248;28;20446;-64
2020/12/23 09:35:43;;;;;;;28.57;8.77;;;;;;;7.38;100.00;100496.03;5011474;28;20026;-63
2020/12/23 09:38:27;;;;;;;31.07;8.73;;;;;;;7.39;100.00;100492.59;5010477;28;20030;-63
2020/12/23 09:40:57;;;;;;;27.47;9.10;;;;;;;7.44;100.00;100485.72;5011018;28;20442;-64
2020/12/23 09:43:30;;;;;;;30.13;8.17;;;;;;;7.46;100.00;100489.22;5010614;28;20033;-64
2020/12/23 09:46:01;;;;;;;30.47;9.10;;;;;;;7.46;100.00;100474.47;5011217;28;20121;-63
2020/12/23 09:48:28;;;;;;;25.53;8.10;;;;;;;7.49;100.00;100471.88;5010929;28;20080;-63
2020/12/23 09:50:54;;;;;;;27.50;7.53;;;;;;;7.52;100.00;100464.13;5011590;28;20413;-63
2020/12/23 09:53:24;;;;;;;26.10;8.70;;;;;;;7.59;100.00;100462.44;5010485;28;20025;-63
2020/12/23 09:55:50;;;;;;;26.70;8.43;;;;;;;7.59;100.00;100465.91;5011354;28;20053;-64
2020/12/23 09:58:16;;;;;;;29.43;8.60;;;;;;;7.59;100.00;100455.53;5009637;28;20119;-63
2020/12/23 10:00:43;;;;;;;29.70;8.90;;;;;;;7.64;100.00;100455.56;5011171;28;20030;-64
2020/12/23 10:03:09;;;;;;;30.30;9.73;;;;;;;7.65;100.00;100457.31;5010433;28;20511;-64
2020/12/23 10:05:35;;;;;;;32.17;9.10;;;;;;;7.67;100.00;100452.13;5010754;28;20033;-64
2020/12/23 10:08:01;;;;;;;25.30;7.50;;;;;;;7.70;100.00;100446.94;5010281;28;20080;-64
2020/12/23 10:10:27;;;;;;;31.60;8.70;;;;;;;7.67;100.00;100441.72;5010523;28;20583;-63
2020/12/23 10:12:53;;;;;;;30.00;9.47;;;;;;;7.64;100.00;100438.22;5010111;28;20032;-64
2020/12/23 10:15:19;;;;;;;33.37;8.93;;;;;;;7.68;100.00;100430.44;5010857;28;20393;-64
2020/12/23 10:17:44;;;;;;;31.57;9.17;;;;;;;7.70;100.00;100427.00;5010477;28;20030;-63
2020/12/23 10:20:10;;;;;;;36.40;9.90;;;;;;;7.71;100.00;100425.25;5010557;28;20054;-64
2020/12/23 10:22:36;;;;;;;32.00;8.87;;;;;;;7.70;100.00;100421.78;5010096;28;20022;-63
2020/12/23 10:25:11;;;;;;;47.57;10.57;;;;;;;7.76;100.00;100415.78;5009439;28;20028;-63
2020/12/23 10:27:37;;;;;;;31.87;9.17;;;;;;;7.83;100.00;100408.00;5009857;28;20169;-63
2020/12/23 10:30:08;;;;;;;28.10;8.60;;;;;;;7.83;100.00;100399.34;5010383;28;20482;-64
2020/12/23 10:32:34;;;;;;;37.83;10.13;;;;;;;7.83;100.00;100392.41;5010212;28;20030;-64
2020/12/23 10:34:59;;;;;;;36.27;9.70;;;;;;;7.87;100.00;100380.25;5010100;28;20509;-63
2020/12/23 10:37:25;;;;;;;35.87;9.73;;;;;;;7.88;100.00;100375.09;5010365;28;20053;-64
2020/12/23 10:39:51;;;;;;;31.30;8.90;;;;;;;7.90;100.00;100373.38;5009744;28;20080;-64
2020/12/23 10:42:17;;;;;;;31.83;9.23;;;;;;;7.96;100.00;100377.72;5010020;28;20033;-63
2020/12/23 10:44:43;;;;;;;23.37;7.77;;;;;;;8.03;100.00;100374.31;5010163;28;20489;-63
2020/12/23 10:47:08;;;;;;;29.90;8.77;;;;;;;8.03;100.00;100374.31;5008591;28;20029;-63
2020/12/23 10:49:34;;;;;;;22.67;8.57;;;;;;;8.06;100.00;100374.31;5009431;28;20026;-63
2020/12/23 10:51:59;;;;;;;27.63;8.67;;;;;;;8.09;100.00;100366.53;5009128;28;20396;-64
2020/12/23 10:54:29;;;;;;;29.37;7.67;;;;;;;8.10;100.00;100359.59;5007890;28;20071;-63
2020/12/23 10:56:55;;;;;;;25.43;8.43;;;;;;;8.06;100.00;100343.09;5009488;28;20416;-63
2020/12/23 10:59:21;;;;;;;31.80;8.33;;;;;;;8.08;100.00;100351.78;5006361;28;20034;-63
2020/12/23 11:01:52;;;;;;;30.63;7.90;;;;;;;8.11;100.00;100341.34;5008891;28;20038;-63
2020/12/23 11:04:18;;;;;;;21.90;7.17;;;;;;;8.11;100.00;100336.16;5009856;28;20088;-63
2020/12/23 11:06:43;;;;;;;31.40;7.73;;;;;;;8.12;100.00;100326.63;5008619;28;20046;-63
2020/12/23 11:09:09;;;;;;;22.60;6.93;;;;;;;8.12;100.00;100324.91;5010018;28;20489;-63
2020/12/23 11:11:34;;;;;;;23.20;6.80;;;;;;;8.11;100.00;100315.31;5008596;28;20034;-63
2020/12/23 11:14:00;;;;;;;24.17;6.60;;;;;;;8.15;100.00;100319.69;5010018;28;20044;-63
2020/12/23 11:16:27;;;;;;;24.00;6.70;;;;;;;8.19;100.00;100313.63;5009694;28;20489;-63